createdAt,value
2022-08-07T00:02:36.859Z,102580.31
2022-08-07T00:04:57.112Z,102573.06
2022-08-07T00:07:23.630Z,102574.97
2022-08-07T00:10:11.105Z,102571.97
2022-08-07T00:12:57.601Z,102575.09
2022-08-07T00:15:38.028Z,102575.09
2022-08-07T00:18:19.658Z,102566.66
2022-08-07T00:20:47.676Z,102567.06
2022-08-07T00:23:14.873Z,102558.66
2022-08-07T00:25:43.534Z,102564.38
2022-08-07T00:28:12.539Z,102561.34
2022-08-07T00:30:42.135Z,102561.34
2022-08-07T00:33:08.618Z,102564.47
2022-08-07T00:35:36.580Z,102559.09
2022-08-07T00:38:03.815Z,102567.19
2022-08-07T00:40:36.605Z,102555.28
2022-08-07T00:43:09.725Z,102549.94
2022-08-07T00:45:37.055Z,102554.97
2022-08-07T00:48:07.838Z,102561.47
2022-08-07T00:50:46.587Z,102558.41
2022-08-07T00:53:18.607Z,102553.75
2022-08-07T00:56:02.272Z,102559.16
2022-08-07T00:58:41.054Z,102553.06
2022-08-07T01:01:10.568Z,102548.38
2022-08-07T01:03:55.332Z,102553.38
2022-08-07T01:06:23.680Z,102554.56
2022-08-07T01:08:53.398Z,102556.16
2022-08-07T01:12:09.810Z,102552.34
2022-08-07T01:14:09.214Z,102556.53
2022-08-07T01:16:36.719Z,102551.91
2022-08-07T01:19:04.948Z,102555.06
2022-08-07T01:21:46.593Z,102556.97
2022-08-07T01:24:14.557Z,102566.94
2022-08-07T01:26:52.013Z,102553.91
2022-08-07T01:29:20.260Z,102562.31
2022-08-07T01:31:49.321Z,102565.06
2022-08-07T01:34:18.652Z,102561.25
2022-08-07T01:36:52.671Z,102563.13
2022-08-07T01:39:41.444Z,102559.34
2022-08-07T01:42:38.292Z,102557.06
2022-08-07T01:45:01.224Z,102564.00
2022-08-07T01:48:20.999Z,102557.84
2022-08-07T01:50:14.411Z,102552.13
2022-08-07T01:52:49.698Z,102552.53
2022-08-07T01:55:42.587Z,102554.41
2022-08-07T01:58:29.642Z,102561.34
2022-08-07T02:01:09.985Z,102544.84
2022-08-07T02:03:59.946Z,102552.13
2022-08-07T02:06:32.214Z,102537.59
2022-08-07T02:09:03.799Z,102538.00
2022-08-07T02:12:03.482Z,102536.47
2022-08-07T02:14:40.321Z,102537.63
2022-08-07T02:17:07.358Z,102532.66
2022-08-07T02:20:07.751Z,102525.03
2022-08-07T02:22:25.716Z,102523.53
2022-08-07T02:24:54.714Z,102521.22
2022-08-07T02:27:23.458Z,102528.94
2022-08-07T02:29:54.598Z,102520.13
2022-08-07T02:32:23.155Z,102523.22
2022-08-07T02:34:51.483Z,102515.16
2022-08-07T02:37:19.014Z,102518.59
2022-08-07T02:40:02.193Z,102521.25
2022-08-07T02:42:34.231Z,102528.94
2022-08-07T02:45:07.289Z,102527.03
2022-08-07T02:47:49.790Z,102523.59
2022-08-07T02:50:16.575Z,102522.81
2022-08-07T02:52:53.129Z,102520.50
2022-08-07T02:55:28.608Z,102519.00
2022-08-07T02:58:12.217Z,102514.41
2022-08-07T03:00:40.804Z,102504.44
2022-08-07T03:03:20.972Z,102512.09
2022-08-07T03:05:51.261Z,102510.97
2022-08-07T03:08:26.985Z,102506.00
2022-08-07T03:10:57.068Z,102500.66
2022-08-07T03:13:23.790Z,102516.75
2022-08-07T03:15:58.216Z,102502.97
2022-08-07T03:18:34.301Z,102502.22
2022-08-07T03:21:04.506Z,102505.66
2022-08-07T03:23:33.904Z,102499.91
2022-08-07T03:26:21.242Z,102491.50
2022-08-07T03:28:50.290Z,102505.28
2022-08-07T03:31:24.569Z,102502.22
2022-08-07T03:34:18.288Z,102502.97
2022-08-07T03:36:48.713Z,102511.38
2022-08-07T03:39:16.058Z,102510.59
2022-08-07T03:41:50.691Z,102521.78
2022-08-07T03:44:21.805Z,102508.75
2022-08-07T03:47:13.708Z,102511.06
2022-08-07T03:49:42.482Z,102504.56
2022-08-07T03:52:22.622Z,102520.66
2022-08-07T03:54:55.013Z,102523.69
2022-08-07T03:58:35.019Z,102512.19
2022-08-07T04:00:12.732Z,102524.06
2022-08-07T04:02:43.088Z,102528.25
2022-08-07T04:05:14.075Z,102532.06
2022-08-07T04:07:46.208Z,102532.06
2022-08-07T04:10:15.526Z,102530.84
2022-08-07T04:12:46.022Z,102532.78
2022-08-07T04:15:13.829Z,102531.22
2022-08-07T04:18:57.491Z,102537.41
2022-08-07T04:20:29.538Z,102540.44
2022-08-07T04:23:01.800Z,102538.16
2022-08-07T04:25:29.173Z,102538.09
2022-08-07T04:28:00.657Z,102545.72
2022-08-07T04:30:44.284Z,102535.72
2022-08-07T04:33:15.724Z,102541.41
2022-08-07T04:35:50.545Z,102549.75
2022-08-07T04:38:17.863Z,102538.69
2022-08-07T04:40:52.503Z,102543.97
2022-08-07T04:44:12.689Z,102549.25
2022-08-07T04:46:34.523Z,102547.25
2022-08-07T04:49:24.789Z,102550.66
2022-08-07T04:52:19.853Z,102557.16
2022-08-07T04:55:02.109Z,102548.34
2022-08-07T04:58:13.817Z,102552.03
2022-08-07T05:00:59.496Z,102557.72
2022-08-07T05:04:07.764Z,102546.53
2022-08-07T05:06:43.600Z,102554.00
2022-08-07T05:09:45.346Z,102559.28
2022-08-07T05:12:27.334Z,102560.03
2022-08-07T05:15:21.622Z,102559.88
2022-08-07T05:17:57.732Z,102562.03
2022-08-07T05:20:27.491Z,102564.28
2022-08-07T05:22:57.180Z,102564.88
2022-08-07T05:25:25.584Z,102563.56
2022-08-07T05:28:20.397Z,102558.47
2022-08-07T05:30:49.881Z,102567.19
2022-08-07T05:33:20.806Z,102568.94
2022-08-07T05:35:49.730Z,102572.31
2022-08-07T05:39:01.046Z,102578.00
2022-08-07T05:41:05.521Z,102577.88
2022-08-07T05:43:49.990Z,102571.50
2022-08-07T05:46:27.037Z,102580.72
2022-08-07T05:48:58.303Z,102580.03
2022-08-07T05:51:25.776Z,102578.31
2022-08-07T05:54:09.726Z,102577.75
2022-08-07T05:56:47.025Z,102583.13
2022-08-07T05:59:19.429Z,102586.34
2022-08-07T06:01:48.551Z,102579.38
2022-08-07T06:04:17.542Z,102587.63
2022-08-07T06:06:46.380Z,102583.50
2022-08-07T06:09:15.492Z,102584.34
2022-08-07T06:11:42.473Z,102584.69
2022-08-07T06:14:12.113Z,102582.66
2022-08-07T06:16:50.408Z,102585.63
2022-08-07T06:19:48.031Z,102580.22
2022-08-07T06:22:15.281Z,102580.59
2022-08-07T06:24:57.750Z,102589.94
2022-08-07T06:27:44.051Z,102576.72
2022-08-07T06:30:24.220Z,102577.09
2022-08-07T06:32:59.074Z,102579.94
2022-08-07T06:35:25.530Z,102584.59
2022-08-07T06:38:08.311Z,102585.88
2022-08-07T06:40:50.090Z,102577.66
2022-08-07T06:43:21.379Z,102577.31
2022-08-07T06:45:49.376Z,102576.22
2022-08-07T06:48:15.969Z,102578.69
2022-08-07T06:50:51.725Z,102586.78
2022-08-07T06:55:29.757Z,102580.00
2022-08-07T06:56:15.261Z,102577.38
2022-08-07T07:00:13.121Z,102585.88
2022-08-07T07:01:33.263Z,102584.81
2022-08-07T07:04:28.514Z,102588.00
2022-08-07T07:07:01.348Z,102587.31
2022-08-07T07:09:31.123Z,102591.28
2022-08-07T07:12:16.676Z,102589.06
2022-08-07T07:15:03.730Z,102595.75
2022-08-07T07:17:38.831Z,102588.69
2022-08-07T07:20:28.009Z,102588.72
2022-08-07T07:24:06.250Z,102587.56
2022-08-07T07:26:35.731Z,102577.50
2022-08-07T07:29:22.755Z,102580.69
2022-08-07T07:31:44.220Z,102578.00
2022-08-07T07:34:30.609Z,102587.34
2022-08-07T07:37:05.605Z,102581.59
2022-08-07T07:39:54.278Z,102586.09
2022-08-07T07:42:32.570Z,102582.97
2022-08-07T07:45:01.784Z,102587.47
2022-08-07T07:47:29.259Z,102585.47
2022-08-07T07:50:36.040Z,102592.25
2022-08-07T07:52:46.992Z,102585.03
2022-08-07T07:55:14.553Z,102577.19
2022-08-07T07:57:52.477Z,102576.06
2022-08-07T08:00:28.946Z,102578.94
2022-08-07T08:03:01.270Z,102575.53
2022-08-07T08:05:43.203Z,102571.97
2022-08-07T08:08:34.720Z,102566.97
2022-08-07T08:11:04.692Z,102569.66
2022-08-07T08:13:33.188Z,102562.88
2022-08-07T08:16:03.713Z,102565.34
2022-08-07T08:18:30.981Z,102553.75
2022-08-07T08:21:01.195Z,102558.56
2022-08-07T08:23:49.363Z,102561.63
2022-08-07T08:26:35.821Z,102556.09
2022-08-07T08:29:03.596Z,102552.97
2022-08-07T08:31:59.328Z,102543.81
2022-08-07T08:34:26.959Z,102543.13
2022-08-07T08:36:57.657Z,102541.38
2022-08-07T08:39:25.582Z,102541.78
2022-08-07T08:42:29.989Z,102540.09
2022-08-07T08:45:13.490Z,102545.09
2022-08-07T08:48:04.853Z,102532.34
2022-08-07T08:50:39.536Z,102536.00
2022-08-07T08:53:15.209Z,102543.13
2022-08-07T08:55:53.478Z,102538.84
2022-08-07T08:58:32.750Z,102536.38
2022-08-07T09:01:15.774Z,102543.75
2022-08-07T09:03:56.699Z,102541.97
2022-08-07T09:07:02.251Z,102543.25
2022-08-07T09:09:41.105Z,102550.41
2022-08-07T09:12:53.034Z,102543.94
2022-08-07T09:16:22.758Z,102537.16
2022-08-07T09:18:58.455Z,102530.63
2022-08-07T09:21:34.470Z,102536.97
2022-08-07T09:24:54.069Z,102541.16
2022-08-07T09:27:24.828Z,102535.16
2022-08-07T09:30:06.430Z,102525.56
2022-08-07T09:32:46.671Z,102536.09
2022-08-07T09:36:04.243Z,102537.53
2022-08-07T09:38:17.925Z,102532.53
2022-08-07T09:41:06.243Z,102524.97
2022-08-07T09:44:10.237Z,102528.78
2022-08-07T09:47:50.260Z,102519.56
2022-08-07T09:50:01.530Z,102511.75
2022-08-07T09:52:41.068Z,102511.41
2022-08-07T09:55:17.039Z,102511.06
2022-08-07T09:58:32.426Z,102510.81
2022-08-07T10:01:08.449Z,102507.81
2022-08-07T10:04:28.261Z,102508.38
2022-08-07T10:07:24.487Z,102508.66
2022-08-07T10:10:23.063Z,102505.81
2022-08-07T10:13:29.858Z,102488.44
2022-08-07T10:16:10.184Z,102499.28
2022-08-07T10:18:49.329Z,102489.84
2022-08-07T10:22:12.388Z,102489.22
2022-08-07T10:25:13.553Z,102478.38
2022-08-07T10:28:08.013Z,102475.91
2022-08-07T10:30:54.068Z,102476.59
2022-08-07T10:34:06.652Z,102475.50
2022-08-07T10:36:48.558Z,102469.84
2022-08-07T10:39:25.526Z,102470.09
2022-08-07T10:42:31.360Z,102471.69
2022-08-07T10:45:45.248Z,102470.72
2022-08-07T10:48:12.418Z,102468.94
2022-08-07T10:50:50.238Z,102472.47
2022-08-07T10:53:27.972Z,102454.38
2022-08-07T10:56:30.925Z,102450.88
2022-08-07T10:59:21.423Z,102462.13
2022-08-07T11:02:11.856Z,102452.91
2022-08-07T11:04:57.602Z,102450.88
2022-08-07T11:07:59.535Z,102445.03
2022-08-07T11:10:39.995Z,102446.44
2022-08-07T11:14:46.026Z,102442.06
2022-08-07T11:16:36.952Z,102439.94
2022-08-07T11:19:10.229Z,102442.44
2022-08-07T11:21:40.837Z,102441.25
2022-08-07T11:24:20.605Z,102439.53
2022-08-07T11:26:54.205Z,102435.97
2022-08-07T11:29:41.926Z,102431.59
2022-08-07T11:32:25.992Z,102428.41
2022-08-07T11:34:58.631Z,102425.16
2022-08-07T11:38:10.221Z,102427.88
2022-08-07T11:40:49.922Z,102427.84
2022-08-07T11:43:29.434Z,102424.97
2022-08-07T11:46:36.613Z,102418.31
2022-08-07T11:50:18.558Z,102415.34
2022-08-07T11:52:42.795Z,102419.03
2022-08-07T11:55:13.078Z,102415.16
2022-08-07T11:58:33.121Z,102404.94
2022-08-07T12:01:22.049Z,102408.06
2022-08-07T12:04:01.098Z,102418.72
2022-08-07T12:06:56.246Z,102399.44
2022-08-07T12:09:46.114Z,102398.31
2022-08-07T12:12:18.985Z,102397.22
2022-08-07T12:14:56.117Z,102387.47
2022-08-07T12:17:33.462Z,102388.16
2022-08-07T12:20:10.518Z,102383.84
2022-08-07T12:23:21.451Z,102387.59
2022-08-07T12:26:23.461Z,102391.22
2022-08-07T12:29:06.225Z,102388.75
2022-08-07T12:32:02.436Z,102378.06
2022-08-07T12:34:28.252Z,102377.00
2022-08-07T12:36:56.089Z,102369.75
2022-08-07T12:39:43.707Z,102365.19
2022-08-07T12:42:13.013Z,102359.56
2022-08-07T12:44:42.921Z,102363.19
2022-08-07T12:47:30.792Z,102369.50
2022-08-07T12:50:04.919Z,102364.75
2022-08-07T12:52:36.828Z,102360.00
2022-08-07T12:55:21.628Z,102362.94
2022-08-07T12:58:08.033Z,102362.22
2022-08-07T13:01:00.837Z,102363.59
2022-08-07T13:04:31.667Z,102373.53
2022-08-07T13:08:14.316Z,102363.13
2022-08-07T13:10:51.799Z,102352.66
2022-08-07T13:13:48.579Z,102363.09
2022-08-07T13:16:37.612Z,102356.63
2022-08-07T13:19:35.012Z,102357.34
2022-08-07T13:22:31.149Z,102343.28
2022-08-07T13:25:09.563Z,102354.06
2022-08-07T13:28:11.705Z,102347.38
2022-08-07T13:30:48.690Z,102338.00
2022-08-07T13:34:29.916Z,102330.50
2022-08-07T13:36:22.139Z,102331.44
2022-08-07T13:39:49.361Z,102339.41
2022-08-07T13:42:06.305Z,102334.94
2022-08-07T13:44:34.561Z,102331.94
2022-08-07T13:47:09.472Z,102334.91
2022-08-07T13:50:32.542Z,102330.97
2022-08-07T13:52:36.284Z,102332.13
2022-08-07T13:55:19.375Z,102329.88
2022-08-07T13:58:27.589Z,102332.50
2022-08-07T14:00:59.395Z,102331.94
2022-08-07T14:04:06.628Z,102330.72
2022-08-07T14:06:32.189Z,102320.25
2022-08-07T14:08:59.386Z,102319.72
2022-08-07T14:11:53.748Z,102312.69
2022-08-07T14:14:20.676Z,102310.63
2022-08-07T14:16:50.078Z,102320.50
2022-08-07T14:20:40.630Z,102312.06
2022-08-07T14:22:34.545Z,102316.91
2022-08-07T14:25:08.234Z,102311.53
2022-08-07T14:28:10.309Z,102309.78
2022-08-07T14:33:15.777Z,102308.06
2022-08-07T14:35:55.749Z,102304.56
2022-08-07T14:38:30.667Z,102306.19
2022-08-07T14:41:14.733Z,102304.81
2022-08-07T14:43:55.257Z,102311.34
2022-08-07T14:46:31.278Z,102309.94
2022-08-07T14:48:59.248Z,102305.44
2022-08-07T14:52:04.591Z,102303.09
2022-08-07T14:57:20.481Z,102310.56
2022-08-07T15:02:39.253Z,102294.81
2022-08-07T15:05:20.269Z,102296.63
2022-08-07T15:07:51.006Z,102294.00
2022-08-07T15:10:26.838Z,102298.25
2022-08-07T15:12:58.683Z,102294.88
2022-08-07T15:15:40.709Z,102286.94
2022-08-07T15:18:33.905Z,102289.63
2022-08-07T15:25:14.408Z,102286.38
2022-08-07T15:26:44.702Z,102288.31
2022-08-07T15:30:06.636Z,102278.00
2022-08-07T15:32:05.001Z,102282.41
2022-08-07T15:34:50.686Z,102276.22
2022-08-07T15:38:04.566Z,102271.44
2022-08-07T15:43:33.537Z,102267.25
2022-08-07T15:46:04.510Z,102272.50
2022-08-07T15:48:55.236Z,102265.00
2022-08-07T15:54:21.486Z,102263.56
2022-08-07T15:56:49.507Z,102256.31
2022-08-07T15:59:17.319Z,102251.81
2022-08-07T16:02:01.738Z,102246.34
2022-08-07T16:04:31.478Z,102248.72
2022-08-07T16:07:04.767Z,102246.81
2022-08-07T16:09:51.968Z,102241.09
2022-08-07T16:13:01.184Z,102245.44
2022-08-07T16:15:58.059Z,102235.41
2022-08-07T16:18:51.566Z,102243.31
2022-08-07T16:22:04.079Z,102243.09
2022-08-07T16:24:52.328Z,102236.66
2022-08-07T16:27:25.369Z,102227.91
2022-08-07T16:30:30.198Z,102231.63
2022-08-07T16:32:59.148Z,102234.88
2022-08-07T16:36:03.686Z,102230.38
2022-08-07T16:39:01.100Z,102231.09
2022-08-07T16:41:58.877Z,102230.34
2022-08-07T16:45:14.968Z,102239.13
2022-08-07T16:47:57.177Z,102234.59
2022-08-07T16:51:20.589Z,102228.38
2022-08-07T16:54:08.865Z,102231.91
2022-08-07T16:56:54.763Z,102243.84
2022-08-07T16:59:46.585Z,102233.41
2022-08-07T17:02:55.514Z,102241.34
2022-08-07T17:06:19.134Z,102235.38
2022-08-07T17:09:09.837Z,102241.63
2022-08-07T17:12:01.539Z,102236.34
2022-08-07T17:14:43.900Z,102232.63
2022-08-07T17:17:23.539Z,102228.88
2022-08-07T17:20:02.735Z,102223.53
2022-08-07T17:22:48.477Z,102228.63
2022-08-07T17:25:19.255Z,102232.47
2022-08-07T17:27:53.318Z,102227.44
2022-08-07T17:30:26.701Z,102232.78
2022-08-07T17:34:09.614Z,102236.66
2022-08-07T17:36:03.009Z,102223.00
2022-08-07T17:38:36.833Z,102225.28
2022-08-07T17:42:03.475Z,102225.56
2022-08-07T17:44:45.254Z,102218.78
2022-08-07T17:47:43.328Z,102216.94
2022-08-07T17:50:20.948Z,102214.09
2022-08-07T17:53:58.261Z,102226.47
2022-08-07T17:56:06.640Z,102232.25
2022-08-07T17:58:56.792Z,102224.25
2022-08-07T18:01:48.543Z,102224.81
2022-08-07T18:04:34.568Z,102223.69
2022-08-07T18:07:20.776Z,102224.34
2022-08-07T18:10:06.503Z,102228.38
2022-08-07T18:13:09.914Z,102223.41
2022-08-07T18:15:55.800Z,102227.81
2022-08-07T18:18:47.500Z,102235.47
2022-08-07T18:21:53.547Z,102237.19
2022-08-07T18:24:28.419Z,102247.00
2022-08-07T18:27:38.828Z,102239.78
2022-08-07T18:30:31.544Z,102240.94
2022-08-07T18:33:24.881Z,102243.78
2022-08-07T18:36:33.036Z,102253.22
2022-08-07T18:40:08.819Z,102245.81
2022-08-07T18:42:34.936Z,102253.69
2022-08-07T18:45:42.762Z,102242.84
2022-08-07T18:48:08.908Z,102253.38
2022-08-07T18:50:47.544Z,102246.78
2022-08-07T18:53:36.502Z,102248.28
2022-08-07T18:56:31.881Z,102251.63
2022-08-07T18:59:47.135Z,102260.69
2022-08-07T19:02:36.352Z,102252.63
2022-08-07T19:05:22.783Z,102257.88
2022-08-07T19:07:57.492Z,102265.78
2022-08-07T19:10:31.581Z,102269.88
2022-08-07T19:13:10.277Z,102277.88
2022-08-07T19:16:05.300Z,102277.78
2022-08-07T19:18:49.408Z,102283.81
2022-08-07T19:21:48.065Z,102277.78
2022-08-07T19:24:48.768Z,102284.69
2022-08-07T19:28:29.492Z,102281.41
2022-08-07T19:31:03.754Z,102288.03
2022-08-07T19:33:10.246Z,102286.56
2022-08-07T19:35:44.133Z,102293.19
2022-08-07T19:38:17.054Z,102293.50
2022-08-07T19:40:50.437Z,102295.00
2022-08-07T19:43:44.943Z,102295.91
2022-08-07T19:46:12.397Z,102301.47
2022-08-07T19:48:53.545Z,102311.56
2022-08-07T19:51:24.260Z,102309.44
2022-08-07T19:54:32.246Z,102312.75
2022-08-07T19:58:00.427Z,102313.94
2022-08-07T19:59:48.548Z,102309.84
2022-08-07T20:02:23.383Z,102321.31
2022-08-07T20:04:56.120Z,102321.16
2022-08-07T20:07:46.554Z,102328.97
2022-08-07T20:10:35.950Z,102326.38
2022-08-07T20:13:15.860Z,102326.03
2022-08-07T20:15:52.195Z,102323.41
2022-08-07T20:18:20.605Z,102319.53
2022-08-07T20:21:01.122Z,102323.75
2022-08-07T20:23:43.153Z,102327.59
2022-08-07T20:26:20.547Z,102329.19
2022-08-07T20:28:59.345Z,102327.81
2022-08-07T20:31:26.322Z,102336.81
2022-08-07T20:33:56.621Z,102327.09
2022-08-07T20:36:26.182Z,102324.38
2022-08-07T20:39:00.515Z,102327.38
2022-08-07T20:41:34.109Z,102322.97
2022-08-07T20:44:05.262Z,102326.50
2022-08-07T20:46:43.799Z,102319.66
2022-08-07T20:49:59.424Z,102319.78
2022-08-07T20:51:59.265Z,102323.19
2022-08-07T20:54:29.281Z,102323.69
2022-08-07T20:57:00.650Z,102321.22
2022-08-07T21:00:08.179Z,102334.38
2022-08-07T21:02:39.066Z,102329.34
2022-08-07T21:05:16.177Z,102335.00
2022-08-07T21:07:49.747Z,102330.66
2022-08-07T21:10:29.497Z,102325.19
2022-08-07T21:12:59.761Z,102332.97
2022-08-07T21:15:58.004Z,102325.06
2022-08-07T21:18:28.154Z,102334.59
2022-08-07T21:20:57.096Z,102335.50
2022-08-07T21:23:49.474Z,102329.78
2022-08-07T21:26:42.938Z,102339.72
2022-08-07T21:29:22.983Z,102331.38
2022-08-07T21:32:47.010Z,102335.75
2022-08-07T21:36:04.023Z,102337.34
2022-08-07T21:38:17.057Z,102331.31
2022-08-07T21:41:10.832Z,102330.25
2022-08-07T21:43:55.907Z,102332.50
2022-08-07T21:46:45.335Z,102331.03
2022-08-07T21:49:17.728Z,102334.13
2022-08-07T21:52:01.044Z,102329.03
2022-08-07T21:54:33.658Z,102327.97
2022-08-07T21:57:15.907Z,102332.28
2022-08-07T22:00:23.017Z,102332.38
2022-08-07T22:03:16.582Z,102324.84
2022-08-07T22:05:50.041Z,102332.06
2022-08-07T22:08:21.003Z,102333.25
2022-08-07T22:10:51.408Z,102338.22
2022-08-07T22:13:24.522Z,102335.19
2022-08-07T22:16:42.410Z,102338.09
2022-08-07T22:19:30.025Z,102335.09
2022-08-07T22:22:21.062Z,102333.91
2022-08-07T22:24:54.833Z,102322.31
2022-08-07T22:27:34.135Z,102337.47
2022-08-07T22:30:18.963Z,102328.00
2022-08-07T22:32:45.331Z,102337.09
2022-08-07T22:35:12.339Z,102343.16
2022-08-07T22:38:04.151Z,102337.19
2022-08-07T22:40:38.413Z,102335.41
2022-08-07T22:43:34.215Z,102346.38
2022-08-07T22:46:47.091Z,102347.63
2022-08-07T22:49:42.801Z,102347.63
2022-08-07T22:52:37.306Z,102347.25
2022-08-07T22:55:39.035Z,102350.38
2022-08-07T22:58:42.131Z,102354.84
2022-08-07T23:01:22.473Z,102355.13
2022-08-07T23:04:17.059Z,102355.25
2022-08-07T23:07:03.569Z,102357.56
2022-08-07T23:10:37.870Z,102366.47
2022-08-07T23:13:29.538Z,102365.97
2022-08-07T23:16:48.587Z,102364.22
2022-08-07T23:19:57.991Z,102364.56
2022-08-07T23:22:39.894Z,102368.84
2022-08-07T23:25:48.411Z,102360.19
2022-08-07T23:28:54.669Z,102370.09
2022-08-07T23:34:23.842Z,102369.44
2022-08-07T23:35:04.514Z,102366.97
2022-08-07T23:38:03.945Z,102372.03
2022-08-07T23:40:34.733Z,102369.06
2022-08-07T23:43:20.747Z,102361.72
2022-08-07T23:46:10.589Z,102368.16
2022-08-07T23:48:52.256Z,102371.28
2022-08-07T23:53:00.711Z,102368.97
2022-08-07T23:54:20.020Z,102368.31
2022-08-07T23:57:24.508Z,102362.25
